メインページ
METAR-TAF:

METAR-TAF

空港 :

キリマンジャロ, タンザニア

キリマンジャロ国際空港

緯度: 03-25S, 経度: 037-04E, 海抜: 891m

現時点の気象観測

当レポートは2時間29分前の22:00(UTC)に作成
の風 15kt
気温 25°C
湿度 61%
気圧 1012 hPa
視程10km以上
高度2800ftの雲はほとんどない

METAR: HTKJ 222200Z 09015KT 9999 FEW028 25/17 Q1012 NOSIG

時間: 03:29 (00:29 UTC)

予報

当レポートは7時間29分前の17:00(UTC)に作成
予報は22日の 18時(UTC)から 23日の 18時(UTC)まで有効
の風 15kt
視程10km以上
高度3200ftの雲はほとんどない, 積乱雲.
高度3400ftの雲は散在している
22日の 20時(UTC)から 22日の 23時(UTC)まで徐々に
高度2600ftの雲は散在している

TAF: HTKJ 221700Z 2218/2318 09015KT 9999 FEW032CB SCT034 BECMG 2220/2223 SCT026

4,000以上の空港の気象観測と天気予報(METAR報とTAF報)

利用可能な観測所は地図上に黄色い丸と赤い丸で示す。

丸の上にカーソルを重ねると観測所名を参照できる。

次にクリックすると気象観測と天気予報を参照できる。

マップの切り替え:黒色「×」印の緑ボタンをクリックして拡大、「-」印の緑ボタンをクリックして縮小、緑色の三角印をクリックして隣りの地図に切り替え


METAR-TAF: